Time;durP1;ratioP1;P1;durP2;ratioP2;P2;SDS_P1;SDS_P2;PMS_P1;PMS_P2;Temp;Humidity;BMP_temperature;BMP_pressure;BME280_temperature;BME280_humidity;BME280_pressure;Samples;Min_cycle;Max_cycle;Signal;HPM_P1;HPM_P2
2022/03/28 00:00:05;;;;;;;20.60;18.90;;;6.90;8.40;;;;;;5019585;28;20168;-71
2022/03/28 00:02:31;;;;;;;21.30;19.55;;;6.80;8.40;;;;;;5019461;28;20533;-72
2022/03/28 00:04:57;;;;;;;18.67;17.07;;;6.70;8.90;;;;;;5028257;28;20208;-71
2022/03/28 00:07:22;;;;;;;18.03;16.73;;;6.70;8.40;;;;;;5033899;28;20182;-71
2022/03/28 00:09:48;;;;;;;20.03;18.00;;;6.70;8.30;;;;;;5033825;28;20209;-69
2022/03/28 00:12:14;;;;;;;21.27;19.50;;;6.70;8.90;;;;;;5022910;28;20263;-71
2022/03/28 00:14:39;;;;;;;20.97;19.07;;;6.60;9.00;;;;;;5019451;28;20389;-71
2022/03/28 00:17:05;;;;;;;18.63;17.23;;;6.60;9.30;;;;;;5018969;28;20430;-71
2022/03/28 00:19:31;;;;;;;19.75;18.05;;;6.60;9.30;;;;;;5017521;28;20224;-69
2022/03/28 00:21:56;;;;;;;18.53;16.87;;;6.50;9.40;;;;;;5018518;28;20204;-70
2022/03/28 00:24:22;;;;;;;18.37;16.93;;;6.50;9.70;;;;;;5018619;28;20667;-70
2022/03/28 00:26:48;;;;;;;19.53;17.80;;;6.40;9.90;;;;;;5018359;28;20177;-69
2022/03/28 00:29:14;;;;;;;17.53;15.90;;;6.50;10.00;;;;;;5018447;28;20435;-70
2022/03/28 00:31:39;;;;;;;17.80;16.50;;;6.40;10.20;;;;;;5018487;28;20255;-70
2022/03/28 00:34:07;;;;;;;18.50;16.80;;;6.40;10.30;;;;;;5018478;28;20212;-70
2022/03/28 00:36:32;;;;;;;19.63;18.13;;;6.30;10.10;;;;;;5018359;28;20524;-69
2022/03/28 00:38:58;;;;;;;18.17;16.77;;;6.30;10.10;;;;;;5017581;28;20287;-71
2022/03/28 00:41:24;;;;;;;18.17;16.60;;;6.30;10.40;;;;;;5018587;28;20232;-69
2022/03/28 00:43:57;;;;;;;18.50;17.10;;;6.20;10.40;;;;;;5018290;28;20238;-70
2022/03/28 00:46:22;;;;;;;19.70;18.20;;;6.20;10.50;;;;;;5017180;28;20199;-68
2022/03/28 00:48:49;;;;;;;18.30;16.70;;;6.10;10.60;;;;;;5017851;28;20676;-70
2022/03/28 00:51:16;;;;;;;17.63;16.30;;;6.10;10.80;;;;;;5018234;28;20196;-69
2022/03/28 00:53:42;;;;;;;18.70;17.20;;;6.10;11.70;;;;;;5018136;28;20187;-69
2022/03/28 00:56:08;;;;;;;18.80;17.50;;;6.00;11.00;;;;;;5018223;28;20180;-70
2022/03/28 00:58:34;;;;;;;17.77;16.37;;;6.10;11.50;;;;;;5018034;28;20196;-69
2022/03/28 01:01:01;;;;;;;19.60;18.07;;;6.00;11.40;;;;;;5017159;28;20176;-70
2022/03/28 01:03:26;;;;;;;18.50;17.08;;;5.90;11.50;;;;;;5018564;28;20191;-70
2022/03/28 01:05:52;;;;;;;19.57;17.90;;;5.90;11.80;;;;;;5018567;28;20184;-70
2022/03/28 01:08:17;;;;;;;18.93;17.03;;;5.80;11.90;;;;;;5018351;28;20566;-70
2022/03/28 01:10:47;;;;;;;16.33;15.23;;;5.80;11.90;;;;;;5018098;28;20458;-69
2022/03/28 01:13:13;;;;;;;18.45;17.00;;;5.80;11.70;;;;;;5017818;28;20282;-70
2022/03/28 01:15:38;;;;;;;17.60;16.30;;;5.70;11.80;;;;;;5017861;28;20185;-70
2022/03/28 01:18:07;;;;;;;18.90;17.20;;;5.70;12.10;;;;;;5016104;28;20455;-71
2022/03/28 01:20:34;;;;;;;17.67;16.00;;;5.60;12.00;;;;;;5017809;28;20211;-70
2022/03/28 01:22:59;;;;;;;20.08;18.17;;;5.60;12.00;;;;;;5017554;28;20190;-70
2022/03/28 01:25:28;;;;;;;19.53;17.93;;;5.50;12.20;;;;;;5017751;28;20172;-70
2022/03/28 01:27:54;;;;;;;19.10;17.38;;;5.50;12.30;;;;;;5017307;28;20211;-70
2022/03/28 01:30:21;;;;;;;17.88;16.40;;;5.40;12.40;;;;;;5017941;28;20204;-70
2022/03/28 01:32:47;;;;;;;19.80;18.20;;;5.30;12.60;;;;;;5017092;28;20267;-70
2022/03/28 01:35:24;;;;;;;19.85;18.08;;;5.20;12.50;;;;;;5016801;28;20207;-70
2022/03/28 01:37:49;;;;;;;17.83;16.40;;;5.20;12.90;;;;;;5016100;28;20211;-70
2022/03/28 01:40:15;;;;;;;18.93;17.33;;;5.20;13.10;;;;;;5015992;28;20176;-70
2022/03/28 01:42:40;;;;;;;19.03;17.43;;;5.30;13.20;;;;;;5017038;28;20184;-70
2022/03/28 01:45:06;;;;;;;19.37;18.17;;;5.30;13.20;;;;;;5017227;28;20502;-70
2022/03/28 01:47:32;;;;;;;19.00;17.00;;;5.30;13.10;;;;;;5016661;28;20183;-69
2022/03/28 01:49:57;;;;;;;18.30;16.90;;;5.30;13.30;;;;;;5016643;28;20801;-70
2022/03/28 01:52:23;;;;;;;17.57;16.03;;;5.30;13.50;;;;;;5014689;28;20186;-70
2022/03/28 01:54:49;;;;;;;18.50;16.97;;;5.20;13.30;;;;;;5013954;28;20183;-69
2022/03/28 01:57:14;;;;;;;17.80;16.27;;;5.30;13.30;;;;;;5013874;28;20172;-69
2022/03/28 01:59:40;;;;;;;18.17;16.77;;;5.30;13.10;;;;;;5013790;28;20203;-70
2022/03/28 02:02:05;;;;;;;21.37;18.83;;;5.40;13.00;;;;;;5014091;28;20255;-70
2022/03/28 02:04:32;;;;;;;18.77;17.03;;;5.40;12.80;;;;;;5012470;28;20180;-70
2022/03/28 02:06:58;;;;;;;19.30;17.63;;;5.40;12.90;;;;;;5013730;28;20551;-70
2022/03/28 02:09:23;;;;;;;20.83;18.87;;;5.40;13.00;;;;;;5012970;28;20206;-69
2022/03/28 02:11:49;;;;;;;20.43;18.40;;;5.40;12.90;;;;;;5013383;28;20490;-70
2022/03/28 02:14:14;;;;;;;19.50;17.50;;;5.40;12.80;;;;;;5013367;28;20180;-68
2022/03/28 02:16:40;;;;;;;16.27;14.87;;;5.40;12.80;;;;;;5013252;28;20203;-69
2022/03/28 02:19:05;;;;;;;18.33;16.67;;;5.40;12.80;;;;;;5013411;28;20207;-71
2022/03/28 02:21:31;;;;;;;19.97;18.37;;;5.40;12.60;;;;;;5012771;28;20605;-72
2022/03/28 02:23:56;;;;;;;18.13;16.53;;;5.40;12.70;;;;;;5013247;28;20187;-70
2022/03/28 02:26:22;;;;;;;18.73;17.53;;;5.40;12.60;;;;;;5013087;28;20179;-70
2022/03/28 02:28:48;;;;;;;18.67;17.10;;;5.40;12.60;;;;;;5013337;28;20318;-70
2022/03/28 02:31:13;;;;;;;17.97;16.67;;;5.40;12.70;;;;;;5013043;28;20203;-70
2022/03/28 02:33:39;;;;;;;19.50;17.80;;;5.40;12.80;;;;;;5013023;28;20254;-71
2022/03/28 02:36:05;;;;;;;18.30;16.83;;;5.30;12.90;;;;;;5013145;28;20369;-71
2022/03/28 02:38:31;;;;;;;18.63;17.35;;;5.30;13.10;;;;;;5013140;28;20199;-71
2022/03/28 02:40:59;;;;;;;25.27;19.43;;;5.20;13.30;;;;;;5013087;28;20563;-71
2022/03/28 02:43:25;;;;;;;18.77;17.38;;;5.20;13.60;;;;;;5012415;28;20423;-71
2022/03/28 02:45:51;;;;;;;18.50;16.40;;;5.10;13.60;;;;;;5011420;28;20278;-72
2022/03/28 02:48:16;;;;;;;18.77;17.27;;;4.90;13.90;;;;;;5012619;28;20726;-71
2022/03/28 02:50:42;;;;;;;17.67;16.47;;;4.90;14.20;;;;;;5012662;28;20227;-71
2022/03/28 02:53:07;;;;;;;18.07;16.50;;;4.80;14.20;;;;;;5012862;28;20622;-71
2022/03/28 02:55:33;;;;;;;18.30;16.80;;;4.70;14.20;;;;;;5011491;28;20592;-70
2022/03/28 02:57:58;;;;;;;20.50;18.67;;;4.70;14.50;;;;;;5012613;28;20200;-70
2022/03/28 03:00:24;;;;;;;16.93;15.70;;;4.70;14.20;;;;;;5012634;28;20198;-70
2022/03/28 03:02:49;;;;;;;29.67;16.47;;;4.70;14.40;;;;;;5012638;28;20204;-70
2022/03/28 03:05:15;;;;;;;20.00;17.90;;;4.60;14.40;;;;;;5012642;28;20261;-70
2022/03/28 03:07:41;;;;;;;18.60;16.63;;;4.60;14.70;;;;;;5012111;28;20184;-69
2022/03/28 03:10:07;;;;;;;17.27;15.87;;;4.50;14.80;;;;;;5010594;28;20204;-69
2022/03/28 03:12:32;;;;;;;19.05;17.48;;;4.50;15.60;;;;;;5012207;28;20180;-70
2022/03/28 03:14:58;;;;;;;20.17;18.47;;;4.40;15.50;;;;;;5012315;28;20206;-70
2022/03/28 03:17:24;;;;;;;17.88;16.10;;;4.40;15.50;;;;;;5012330;28;20187;-70
2022/03/28 03:19:50;;;;;;;18.53;16.93;;;4.40;15.50;;;;;;5010705;28;20211;-70
2022/03/28 03:22:15;;;;;;;18.73;17.27;;;4.40;15.60;;;;;;5012524;28;20180;-70
2022/03/28 03:24:45;;;;;;;16.07;14.63;;;4.40;15.50;;;;;;5012491;28;20171;-69
2022/03/28 03:27:12;;;;;;;18.05;16.52;;;4.50;15.60;;;;;;5012271;28;20526;-69
2022/03/28 03:29:37;;;;;;;17.60;16.20;;;4.60;15.60;;;;;;5012241;28;20234;-70
2022/03/28 03:32:04;;;;;;;18.87;16.33;;;4.50;15.20;;;;;;5013124;28;20219;-70
2022/03/28 03:34:33;;;;;;;19.27;17.38;;;4.50;15.60;;;;;;5012615;28;20242;-69
2022/03/28 03:37:00;;;;;;;19.55;17.70;;;4.50;15.60;;;;;;5007466;28;20208;-69
2022/03/28 03:39:25;;;;;;;20.08;18.10;;;4.40;15.50;;;;;;5002494;28;20206;-69
2022/03/28 03:41:52;;;;;;;17.40;15.90;;;4.40;15.60;;;;;;5000723;28;20184;-68
2022/03/28 03:44:18;;;;;;;17.77;16.02;;;4.30;15.40;;;;;;4992129;28;20552;-70
2022/03/28 03:46:43;;;;;;;18.55;17.10;;;4.30;15.50;;;;;;4991902;28;20267;-72
2022/03/28 03:49:09;;;;;;;16.13;14.83;;;4.30;15.70;;;;;;4990953;28;20760;-69
2022/03/28 03:51:35;;;;;;;21.70;17.40;;;4.20;16.00;;;;;;5001104;28;20196;-69
2022/03/28 03:54:01;;;;;;;17.60;15.98;;;4.30;16.40;;;;;;5012193;28;20183;-71
2022/03/28 03:56:30;;;;;;;18.33;16.83;;;4.30;16.10;;;;;;5011858;28;20179;-70
2022/03/28 03:58:56;;;;;;;16.75;15.02;;;4.20;16.30;;;;;;5011803;28;20281;-70
2022/03/28 04:01:22;;;;;;;17.83;15.50;;;4.30;16.40;;;;;;4997925;28;20184;-70
2022/03/28 04:03:48;;;;;;;19.30;17.40;;;4.30;16.30;;;;;;5012013;28;20642;-71
2022/03/28 04:06:14;;;;;;;17.70;16.03;;;4.20;16.60;;;;;;5011836;28;20482;-70
2022/03/28 04:08:39;;;;;;;17.67;16.17;;;4.30;16.40;;;;;;5011815;28;20434;-71
2022/03/28 04:11:06;;;;;;;23.67;18.30;;;4.30;16.40;;;;;;5012060;28;20203;-69
2022/03/28 04:13:32;;;;;;;18.67;15.85;;;4.30;16.60;;;;;;5012138;28;20243;-71
2022/03/28 04:15:58;;;;;;;17.60;15.63;;;4.20;16.80;;;;;;5012354;28;20594;-70
2022/03/28 04:18:25;;;;;;;18.53;16.73;;;4.20;16.80;;;;;;5012333;28;20211;-70
2022/03/28 04:20:52;;;;;;;16.95;14.60;;;4.00;17.40;;;;;;5011876;28;20578;-69
2022/03/28 04:23:18;;;;;;;17.02;15.45;;;4.00;17.60;;;;;;5015148;28;20172;-70
2022/03/28 04:25:44;;;;;;;18.10;16.20;;;4.00;17.30;;;;;;5015385;28;20568;-68
2022/03/28 04:28:09;;;;;;;23.93;16.83;;;4.10;17.30;;;;;;5013773;28;20200;-69
2022/03/28 04:30:35;;;;;;;17.00;15.33;;;4.10;17.30;;;;;;5014976;28;20196;-69
2022/03/28 04:33:02;;;;;;;21.98;16.85;;;4.10;17.00;;;;;;5015228;28;20175;-68
2022/03/28 04:35:28;;;;;;;17.65;16.00;;;4.10;17.10;;;;;;5010983;28;20183;-69
2022/03/28 04:37:54;;;;;;;16.63;15.20;;;4.10;17.10;;;;;;5004994;28;20200;-68
2022/03/28 04:40:20;;;;;;;16.23;14.73;;;4.10;17.00;;;;;;5015230;28;20187;-68
2022/03/28 04:42:47;;;;;;;18.33;16.50;;;4.00;17.30;;;;;;5015095;28;20419;-68
2022/03/28 04:45:13;;;;;;;17.55;15.95;;;4.00;17.20;;;;;;5015155;28;20180;-70
2022/03/28 04:47:39;;;;;;;17.50;15.82;;;3.90;17.40;;;;;;5014594;28;20265;-69
2022/03/28 04:50:07;;;;;;;15.32;14.05;;;4.00;17.80;;;;;;5014923;28;20203;-70
2022/03/28 04:52:33;;;;;;;16.83;15.40;;;4.00;18.00;;;;;;5013465;28;20207;-70
2022/03/28 04:54:58;;;;;;;17.23;15.67;;;3.90;18.10;;;;;;5015006;28;20175;-70
2022/03/28 04:57:24;;;;;;;21.20;15.80;;;3.90;18.30;;;;;;5013298;28;20182;-70
2022/03/28 04:59:49;;;;;;;21.30;17.20;;;3.90;18.20;;;;;;5013479;28;20283;-70
2022/03/28 05:02:15;;;;;;;16.73;15.17;;;3.90;18.20;;;;;;5013457;28;20174;-70
2022/03/28 05:04:41;;;;;;;17.87;16.20;;;3.90;17.90;;;;;;5014503;28;20173;-69
2022/03/28 05:07:07;;;;;;;17.83;15.98;;;3.90;18.00;;;;;;5014511;28;20184;-70
2022/03/28 05:09:33;;;;;;;16.60;15.00;;;4.00;17.80;;;;;;5014794;28;20230;-68
2022/03/28 05:11:59;;;;;;;17.52;15.90;;;4.00;17.90;;;;;;5015280;28;20712;-67
2022/03/28 05:14:25;;;;;;;18.27;16.37;;;4.10;17.60;;;;;;5015425;28;20187;-68
2022/03/28 05:16:50;;;;;;;21.55;17.10;;;4.10;17.50;;;;;;5015001;28;20175;-69
2022/03/28 05:19:16;;;;;;;25.53;17.10;;;4.10;17.40;;;;;;5015061;28;20222;-69
2022/03/28 05:21:42;;;;;;;17.90;16.33;;;4.10;17.10;;;;;;5014265;28;20186;-68
2022/03/28 05:24:07;;;;;;;19.67;17.90;;;4.10;17.00;;;;;;5013199;28;20653;-68
2022/03/28 05:26:33;;;;;;;18.07;16.47;;;4.10;17.30;;;;;;5013722;28;20203;-67
2022/03/28 05:28:58;;;;;;;17.63;14.97;;;4.10;17.30;;;;;;5014136;28;20558;-68
2022/03/28 05:31:24;;;;;;;17.73;15.83;;;4.10;17.40;;;;;;5013946;28;20215;-70
2022/03/28 05:33:50;;;;;;;23.03;15.73;;;4.20;17.20;;;;;;5013507;28;20172;-70
2022/03/28 05:36:16;;;;;;;20.00;18.00;;;4.20;18.10;;;;;;5013629;28;20427;-69
2022/03/28 05:38:42;;;;;;;17.97;15.20;;;4.20;17.70;;;;;;5013483;28;20470;-68
2022/03/28 05:41:08;;;;;;;16.65;14.95;;;4.20;17.80;;;;;;5014863;28;20180;-69
2022/03/28 05:43:35;;;;;;;17.40;15.68;;;4.30;17.90;;;;;;5017119;28;20229;-68
2022/03/28 05:46:02;;;;;;;22.90;15.45;;;4.40;17.60;;;;;;5014072;28;20194;-67
2022/03/28 05:48:27;;;;;;;16.45;14.80;;;4.60;17.70;;;;;;5013425;28;20203;-68
2022/03/28 05:50:53;;;;;;;16.23;14.60;;;4.60;17.40;;;;;;5012347;28;20214;-68
2022/03/28 05:53:19;;;;;;;17.37;15.90;;;4.80;17.60;;;;;;5014349;28;20168;-68
2022/03/28 05:55:44;;;;;;;17.00;15.30;;;5.10;17.70;;;;;;5014218;28;20180;-70
2022/03/28 05:58:10;;;;;;;17.50;16.17;;;5.60;17.00;;;;;;5013779;28;20203;-68
2022/03/28 06:00:37;;;;;;;17.70;15.95;;;6.10;16.30;;;;;;5014227;28;20188;-69
2022/03/28 06:03:08;;;;;;;19.35;17.35;;;6.70;15.40;;;;;;5013456;28;20680;-70
2022/03/28 06:05:33;;;;;;;20.97;19.17;;;7.40;13.90;;;;;;5013637;28;20544;-69
2022/03/28 06:07:59;;;;;;;19.03;17.20;;;8.00;13.50;;;;;;5013437;28;20525;-69
2022/03/28 06:10:25;;;;;;;18.27;16.80;;;8.50;11.70;;;;;;5013252;28;20258;-70
2022/03/28 06:12:51;;;;;;;19.03;17.70;;;9.00;11.50;;;;;;5013179;28;20435;-69
2022/03/28 06:15:18;;;;;;;21.67;19.57;;;9.60;10.10;;;;;;5013371;28;20411;-69
2022/03/28 06:17:44;;;;;;;21.27;19.50;;;10.20;8.70;;;;;;5012730;28;20428;-69
2022/03/28 06:20:10;;;;;;;17.87;16.53;;;10.80;7.70;;;;;;5013369;28;20421;-69
2022/03/28 06:22:36;;;;;;;22.47;20.37;;;11.30;7.70;;;;;;5013494;28;20207;-68
2022/03/28 06:25:03;;;;;;;21.87;19.83;;;11.90;5.90;;;;;;5013487;28;20464;-69
2022/03/28 06:27:29;;;;;;;21.70;19.70;;;12.40;4.40;;;;;;5013787;28;20530;-68
2022/03/28 06:29:55;;;;;;;22.23;20.60;;;12.70;2.50;;;;;;5015300;28;20512;-69
2022/03/28 06:32:22;;;;;;;19.77;18.17;;;12.90;2.70;;;;;;5015825;28;20431;-68
2022/03/28 06:34:48;;;;;;;24.47;20.63;;;13.40;3.90;;;;;;5021667;28;20207;-67
2022/03/28 06:37:16;;;;;;;23.30;21.33;;;13.80;2.30;;;;;;5023758;28;20445;-68
2022/03/28 06:39:41;;;;;;;22.43;20.47;;;14.20;2.40;;;;;;5021563;28;20589;-67
2022/03/28 06:42:08;;;;;;;21.73;20.23;;;14.70;2.10;;;;;;5018739;28;20433;-67
2022/03/28 06:44:34;;;;;;;22.43;20.70;;;15.10;1.00;;;;;;5014764;28;21142;-68
2022/03/28 06:46:59;;;;;;;23.03;19.90;;;15.50;1.00;;;;;;5007952;28;20433;-68
2022/03/28 06:49:25;;;;;;;24.40;22.40;;;15.60;1.00;;;;;;4999666;28;20207;-66
2022/03/28 06:51:50;;;;;;;20.40;19.07;;;15.70;1.00;;;;;;4990254;28;20247;-69
2022/03/28 06:54:19;;;;;;;23.53;21.83;;;15.80;1.00;;;;;;4997969;28;20184;-69
2022/03/28 06:56:45;;;;;;;22.53;20.63;;;16.00;1.00;;;;;;5005353;28;20576;-69
2022/03/28 06:59:11;;;;;;;23.67;21.77;;;16.20;1.00;;;;;;5008191;28;20480;-68
2022/03/28 07:01:36;;;;;;;24.13;21.93;;;16.20;1.00;;;;;;5014579;28;20478;-68
2022/03/28 07:04:03;;;;;;;22.40;20.67;;;16.30;1.00;;;;;;5012494;28;20573;-67
2022/03/28 07:06:29;;;;;;;22.23;20.03;;;16.20;1.00;;;;;;5016998;28;20182;-70
2022/03/28 07:08:54;;;;;;;22.83;20.83;;;16.10;1.00;;;;;;5023301;28;20438;-68
2022/03/28 07:11:20;;;;;;;22.63;21.03;;;16.20;1.00;;;;;;5032269;28;20886;-69
2022/03/28 07:13:46;;;;;;;21.57;20.00;;;16.30;1.00;;;;;;5032050;28;20175;-69
2022/03/28 07:16:12;;;;;;;22.80;20.40;;;16.00;1.00;;;;;;5027898;28;20649;-69
2022/03/28 07:18:37;;;;;;;23.13;21.40;;;15.70;1.00;;;;;;5011663;28;20470;-69
2022/03/28 07:21:03;;;;;;;21.63;20.23;;;15.40;1.00;;;;;;5012134;28;20779;-68
2022/03/28 07:23:28;;;;;;;20.67;19.00;;;15.00;1.00;;;;;;5012190;28;20710;-68
2022/03/28 07:25:56;;;;;;;19.17;18.00;;;14.70;1.00;;;;;;5012442;28;20644;-69
2022/03/28 07:28:21;;;;;;;23.90;21.87;;;14.40;1.00;;;;;;5012136;28;20202;-71
2022/03/28 07:30:47;;;;;;;22.17;19.83;;;14.20;1.00;;;;;;5012284;28;20475;-69
2022/03/28 07:33:13;;;;;;;23.27;21.40;;;14.00;1.00;;;;;;5012400;28;20542;-68
2022/03/28 07:35:40;;;;;;;22.03;20.27;;;13.70;1.00;;;;;;5012140;28;20585;-68
2022/03/28 07:38:08;;;;;;;23.77;21.57;;;13.60;1.00;;;;;;5010060;28;20526;-69
2022/03/28 07:40:40;;;;;;;21.23;19.50;;;13.40;1.00;;;;;;5012381;28;20422;-69
2022/03/28 07:43:07;;;;;;;23.93;22.03;;;13.30;1.00;;;;;;5011142;28;20530;-69
2022/03/28 07:45:34;;;;;;;21.93;20.17;;;13.30;2.00;;;;;;5011370;28;20462;-72
2022/03/28 07:47:59;;;;;;;24.33;21.93;;;13.20;1.00;;;;;;5011411;28;21002;-69
2022/03/28 07:50:25;;;;;;;23.63;21.77;;;12.80;1.40;;;;;;5012225;28;20494;-68
2022/03/28 07:52:51;;;;;;;22.67;20.77;;;12.80;2.60;;;;;;5012411;28;20535;-69
2022/03/28 07:55:17;;;;;;;26.53;23.67;;;13.00;2.80;;;;;;5011982;28;20238;-70
2022/03/28 07:57:44;;;;;;;23.00;20.97;;;13.10;1.60;;;;;;5015364;28;20417;-70
2022/03/28 08:00:13;;;;;;;21.87;20.03;;;12.90;1.40;;;;;;5015938;28;20429;-68
2022/03/28 08:02:40;;;;;;;22.13;20.20;;;13.10;2.80;;;;;;5013240;28;20430;-69
2022/03/28 08:05:07;;;;;;;23.73;21.70;;;13.20;1.70;;;;;;5018330;28;20515;-71
2022/03/28 08:07:33;;;;;;;23.63;21.30;;;13.40;1.00;;;;;;5010626;28;20451;-69
2022/03/28 08:09:59;;;;;;;23.43;21.13;;;13.60;1.20;;;;;;4995463;28;20431;-70
2022/03/28 08:12:24;;;;;;;22.23;20.40;;;13.80;1.00;;;;;;4994358;28;20416;-70
2022/03/28 08:14:51;;;;;;;22.77;21.00;;;13.90;1.30;;;;;;4995925;28;20185;-69
2022/03/28 08:17:19;;;;;;;21.20;19.67;;;14.10;1.00;;;;;;4995825;28;20168;-70
2022/03/28 08:19:44;;;;;;;22.27;20.53;;;14.20;1.00;;;;;;4995821;28;20455;-69
2022/03/28 08:22:10;;;;;;;23.13;21.10;;;14.20;1.00;;;;;;4995803;28;20812;-70
2022/03/28 08:24:35;;;;;;;23.30;21.20;;;14.40;1.00;;;;;;5010940;28;20355;-69
2022/03/28 08:27:01;;;;;;;23.00;21.40;;;14.40;1.00;;;;;;5010660;28;20183;-69
2022/03/28 08:29:27;;;;;;;23.00;21.00;;;14.60;1.00;;;;;;5011096;28;20211;-69
2022/03/28 08:31:52;;;;;;;22.10;20.43;;;14.70;1.00;;;;;;5010607;28;20240;-69
2022/03/28 08:34:19;;;;;;;24.50;22.47;;;14.60;1.00;;;;;;4995583;28;20258;-70
2022/03/28 08:36:45;;;;;;;23.53;21.33;;;14.70;1.00;;;;;;4995683;28;20180;-70
2022/03/28 08:39:10;;;;;;;23.50;20.33;;;14.70;1.00;;;;;;4995749;28;20434;-70
2022/03/28 08:41:37;;;;;;;29.80;22.53;;;14.80;1.00;;;;;;4996000;28;20189;-69
2022/03/28 08:44:03;;;;;;;21.67;19.90;;;14.90;1.00;;;;;;5010860;28;20554;-69
2022/03/28 08:46:29;;;;;;;24.03;21.90;;;14.80;1.00;;;;;;5010178;28;20473;-70
2022/03/28 08:48:59;;;;;;;24.40;20.90;;;14.70;1.00;;;;;;4995309;28;20437;-70
2022/03/28 08:51:27;;;;;;;23.07;21.17;;;14.70;1.00;;;;;;4995447;28;20495;-71
2022/03/28 08:53:53;;;;;;;22.00;20.10;;;14.80;1.00;;;;;;4995406;28;20414;-73
2022/03/28 08:56:19;;;;;;;21.27;19.93;;;14.80;1.00;;;;;;4996022;28;20522;-70
2022/03/28 08:58:44;;;;;;;24.03;22.23;;;14.90;1.00;;;;;;4994894;28;20525;-68
2022/03/28 09:01:11;;;;;;;22.27;20.57;;;14.80;1.00;;;;;;4995271;28;20186;-70
2022/03/28 09:03:47;;;;;;;20.83;19.43;;;14.80;1.00;;;;;;4995183;28;20188;-72
2022/03/28 09:06:37;;;;;;;22.83;20.83;;;14.90;1.00;;;;;;5010123;28;20486;-70
2022/03/28 09:09:12;;;;;;;24.40;21.90;;;14.90;1.00;;;;;;4994096;28;20497;-71
2022/03/28 09:11:39;;;;;;;25.30;23.10;;;14.90;1.00;;;;;;4994753;28;20455;-70
2022/03/28 09:14:05;;;;;;;26.23;24.20;;;14.50;1.00;;;;;;4994927;28;20412;-70
2022/03/28 09:16:34;;;;;;;24.10;21.70;;;14.30;1.00;;;;;;5009379;28;20416;-70
2022/03/28 09:19:08;;;;;;;24.73;22.70;;;14.50;1.00;;;;;;5009778;28;20484;-69
2022/03/28 09:21:33;;;;;;;22.17;20.50;;;14.70;1.00;;;;;;4994661;28;20423;-69
2022/03/28 09:23:59;;;;;;;23.27;21.13;;;15.10;1.00;;;;;;4995058;28;20497;-70
2022/03/28 09:26:26;;;;;;;29.93;23.10;;;15.30;1.00;;;;;;4994706;28;20672;-69
2022/03/28 09:28:56;;;;;;;22.97;20.97;;;15.30;1.00;;;;;;5009601;28;20573;-71
2022/03/28 09:31:30;;;;;;;24.40;22.20;;;15.40;1.00;;;;;;4994684;28;20460;-70
2022/03/28 09:34:18;;;;;;;23.87;22.00;;;15.60;1.00;;;;;;4995132;28;20410;-70
2022/03/28 09:36:53;;;;;;;22.90;21.17;;;15.80;1.00;;;;;;4994404;28;20407;-71
2022/03/28 09:39:20;;;;;;;22.83;20.93;;;15.90;1.00;;;;;;4994299;28;20441;-71
2022/03/28 09:42:06;;;;;;;24.00;22.00;;;16.10;1.00;;;;;;4994301;28;20436;-70
2022/03/28 09:44:35;;;;;;;23.90;22.10;;;16.20;1.00;;;;;;4994287;28;20505;-69
2022/03/28 09:47:21;;;;;;;23.23;21.10;;;16.30;1.00;;;;;;4994552;28;20827;-69
2022/03/28 09:49:49;;;;;;;22.67;20.93;;;16.50;1.00;;;;;;4993946;28;21000;-70
2022/03/28 09:52:20;;;;;;;25.17;22.60;;;16.70;1.00;;;;;;4993941;28;20824;-70
2022/03/28 09:54:55;;;;;;;23.20;21.10;;;16.80;1.00;;;;;;4994149;28;20400;-69
2022/03/28 09:57:32;;;;;;;22.33;20.70;;;16.90;1.00;;;;;;4994055;28;20831;-69
2022/03/28 10:00:09;;;;;;;25.03;22.40;;;17.00;1.00;;;;;;5009313;28;20537;-71
2022/03/28 10:02:35;;;;;;;23.70;21.77;;;17.20;1.00;;;;;;4993971;28;20427;-70
2022/03/28 10:05:02;;;;;;;23.00;21.30;;;17.30;1.00;;;;;;4994040;28;20849;-70
2022/03/28 10:07:28;;;;;;;24.20;22.40;;;17.40;1.00;;;;;;4993567;28;20408;-71
2022/03/28 10:09:54;;;;;;;24.33;22.40;;;17.60;1.00;;;;;;4994238;28;20407;-71
2022/03/28 10:12:22;;;;;;;24.03;22.13;;;17.60;1.00;;;;;;4994024;28;20408;-70
2022/03/28 10:14:54;;;;;;;23.47;21.60;;;17.70;1.00;;;;;;4994095;28;20176;-69
2022/03/28 10:17:20;;;;;;;23.27;21.20;;;17.80;1.00;;;;;;4993603;28;20752;-70
2022/03/28 10:19:46;;;;;;;23.33;21.60;;;18.00;1.00;;;;;;4992754;28;20459;-70
2022/03/28 10:22:31;;;;;;;23.80;21.50;;;18.10;1.00;;;;;;4993813;28;20530;-70
2022/03/28 10:25:02;;;;;;;24.07;22.10;;;18.30;1.00;;;;;;4993596;28;20856;-70
2022/03/28 10:27:28;;;;;;;21.80;20.10;;;18.50;1.00;;;;;;4992984;28;20506;-70
2022/03/28 10:29:53;;;;;;;21.90;20.00;;;18.60;1.00;;;;;;4993426;28;20502;-68
2022/03/28 10:32:23;;;;;;;25.27;23.00;;;18.70;1.00;;;;;;4993105;28;20180;-70
2022/03/28 10:34:56;;;;;;;20.70;19.00;;;18.80;1.00;;;;;;4993030;28;20235;-70
2022/03/28 10:37:49;;;;;;;21.43;19.73;;;19.00;1.00;;;;;;4992794;28;20419;-70
2022/03/28 10:40:27;;;;;;;22.33;20.70;;;19.00;1.00;;;;;;4993203;28;20444;-71
2022/03/28 10:43:07;;;;;;;22.60;20.70;;;19.10;1.00;;;;;;4993361;28;20423;-71
2022/03/28 10:45:38;;;;;;;23.70;21.70;;;19.10;1.00;;;;;;4993087;28;20419;-71
2022/03/28 10:48:05;;;;;;;20.20;18.90;;;19.30;1.00;;;;;;5007862;28;20644;-70
2022/03/28 10:50:48;;;;;;;21.13;19.60;;;19.40;1.00;;;;;;4993040;28;20943;-70
2022/03/28 10:53:33;;;;;;;21.20;19.80;;;19.60;1.00;;;;;;4992961;28;20909;-70
2022/03/28 10:56:05;;;;;;;22.00;20.00;;;19.70;1.00;;;;;;4993138;28;20412;-72
2022/03/28 10:58:37;;;;;;;21.37;19.87;;;19.80;1.00;;;;;;4992773;28;20463;-71
2022/03/28 11:01:05;;;;;;;21.83;20.23;;;19.90;1.00;;;;;;4993122;28;20974;-71
2022/03/28 11:03:37;;;;;;;26.40;23.50;;;19.90;1.00;;;;;;4994171;28;20947;-71
2022/03/28 11:06:03;;;;;;;23.93;21.47;;;20.00;1.00;;;;;;4993118;28;20433;-72
2022/03/28 11:08:38;;;;;;;21.20;19.70;;;20.00;1.00;;;;;;4992537;28;20440;-70
2022/03/28 11:11:36;;;;;;;22.40;20.70;;;20.10;1.00;;;;;;4992735;28;20999;-69
2022/03/28 11:14:08;;;;;;;21.90;20.30;;;20.20;1.00;;;;;;4949843;28;20455;-69
2022/03/28 11:16:50;;;;;;;20.70;19.20;;;20.30;1.00;;;;;;4992450;28;20416;-68
2022/03/28 11:19:29;;;;;;;20.63;19.23;;;20.20;1.00;;;;;;5080936;23;20997;-72
2022/03/28 11:22:04;;;;;;;21.70;20.17;;;20.30;1.00;;;;;;5031785;28;20788;-72
2022/03/28 11:24:48;;;;;;;20.23;18.83;;;20.40;1.00;;;;;;5031223;28;20420;-73
2022/03/28 11:27:16;;;;;;;22.17;20.63;;;20.50;1.00;;;;;;5031448;28;20445;-72
2022/03/28 11:29:44;;;;;;;21.17;19.70;;;20.60;1.00;;;;;;5031749;28;20533;-72
2022/03/28 11:32:15;;;;;;;23.63;22.13;;;20.60;1.00;;;;;;5034829;28;20453;-72
2022/03/28 11:34:48;;;;;;;22.30;20.83;;;20.70;1.00;;;;;;5035948;28;20872;-73
2022/03/28 11:37:15;;;;;;;22.07;20.60;;;20.70;1.00;;;;;;5035706;28;20774;-73
2022/03/28 11:39:55;;;;;;;21.73;20.27;;;20.80;1.00;;;;;;5035856;28;20456;-72
2022/03/28 11:42:25;;;;;;;22.03;20.60;;;20.90;1.00;;;;;;5035576;28;20782;-72
2022/03/28 11:44:51;;;;;;;21.77;20.20;;;21.00;1.00;;;;;;5035676;28;20410;-72
2022/03/28 11:47:18;;;;;;;23.40;21.70;;;21.00;1.00;;;;;;5035314;28;20406;-73
2022/03/28 11:49:57;;;;;;;22.20;20.50;;;21.10;1.00;;;;;;5035536;28;20187;-72
2022/03/28 11:52:25;;;;;;;21.27;19.90;;;21.20;1.00;;;;;;5035441;28;20942;-72
2022/03/28 11:54:51;;;;;;;20.50;19.20;;;21.20;1.00;;;;;;5034103;28;20422;-73
2022/03/28 12:00:19;;;;;;;21.67;20.07;;;21.30;1.00;;;;;;5035282;28;20457;-72
2022/03/28 12:02:49;;;;;;;20.73;19.50;;;21.30;1.00;;;;;;5035235;28;20418;-73
2022/03/28 12:05:28;;;;;;;21.53;20.03;;;21.40;1.00;;;;;;5035249;28;20573;-72
2022/03/28 12:07:55;;;;;;;21.70;20.37;;;21.50;1.00;;;;;;5033363;28;20471;-72
2022/03/28 12:10:25;;;;;;;20.43;19.07;;;21.40;1.00;;;;;;5034886;28;21033;-72
2022/03/28 12:12:52;;;;;;;22.73;21.00;;;21.20;1.00;;;;;;5035022;28;20421;-72
2022/03/28 12:15:30;;;;;;;21.87;20.13;;;21.20;1.00;;;;;;5034862;28;20410;-72
2022/03/28 12:17:59;;;;;;;20.53;19.03;;;21.30;1.00;;;;;;5034399;28;20436;-72
2022/03/28 12:20:30;;;;;;;21.93;20.23;;;21.40;1.00;;;;;;5033821;28;20779;-72
2022/03/28 12:22:56;;;;;;;21.20;19.33;;;21.40;1.00;;;;;;5034210;28;20425;-72
2022/03/28 12:25:29;;;;;;;19.93;18.60;;;21.40;1.00;;;;;;5034629;28;20425;-72
2022/03/28 12:27:58;;;;;;;21.50;20.10;;;21.20;1.00;;;;;;5034317;28;20417;-72
2022/03/28 12:30:41;;;;;;;20.50;19.20;;;21.30;1.00;;;;;;5033879;28;20551;-72
2022/03/28 12:33:11;;;;;;;20.70;19.50;;;21.40;1.00;;;;;;5033290;28;20436;-73
2022/03/28 12:35:40;;;;;;;21.47;20.03;;;21.40;1.00;;;;;;5034712;28;20497;-71
2022/03/28 12:38:07;;;;;;;19.67;18.57;;;21.20;1.00;;;;;;5034412;28;20413;-73
2022/03/28 12:40:33;;;;;;;22.47;20.93;;;21.10;1.00;;;;;;5034382;28;20495;-72
2022/03/28 12:43:02;;;;;;;21.30;19.83;;;21.30;1.00;;;;;;5033238;28;20418;-73